Time;durP1;ratioP1;P1;durP2;ratioP2;P2;SDS_P1;SDS_P2;PMS_P1;PMS_P2;Temp;Humidity;BMP_temperature;BMP_pressure;BME280_temperature;BME280_humidity;BME280_pressure;Samples;Min_cycle;Max_cycle;Signal;HPM_P1;HPM_P2
2023/11/03 00:00:12;;;;;;;1.02;0.60;;;8.70;99.90;;;;;;4996922;28;20046;-71
2023/11/03 00:02:39;;;;;;;1.02;0.60;;;8.70;99.90;;;;;;4981189;28;20045;-72
2023/11/03 00:05:08;;;;;;;1.60;0.68;;;8.70;99.90;;;;;;5012623;28;20041;-71
2023/11/03 00:07:35;;;;;;;2.42;1.15;;;8.70;99.90;;;;;;4996371;28;20506;-71
2023/11/03 00:10:05;;;;;;;1.90;0.65;;;8.70;99.90;;;;;;5014644;28;20428;-71
2023/11/03 00:12:32;;;;;;;3.22;0.70;;;8.70;99.90;;;;;;4997090;28;20406;-71
2023/11/03 00:14:57;;;;;;;2.90;1.00;;;8.70;99.90;;;;;;4996701;28;20038;-71
2023/11/03 00:17:23;;;;;;;1.95;0.90;;;8.70;99.90;;;;;;5013842;28;20512;-72
2023/11/03 00:19:48;;;;;;;3.17;1.00;;;8.70;99.90;;;;;;4996561;28;20407;-71
2023/11/03 00:22:14;;;;;;;1.90;1.10;;;8.70;99.90;;;;;;4989904;28;20037;-71
2023/11/03 00:24:40;;;;;;;1.88;1.17;;;8.70;99.90;;;;;;5014378;28;20458;-71
2023/11/03 00:27:06;;;;;;;2.00;1.52;;;8.80;99.90;;;;;;5013441;28;20494;-72
2023/11/03 00:29:31;;;;;;;3.75;1.40;;;8.80;99.90;;;;;;4996723;28;20049;-71
2023/11/03 00:31:57;;;;;;;4.15;1.55;;;8.80;99.90;;;;;;5014198;28;20460;-71
2023/11/03 00:34:23;;;;;;;3.35;1.50;;;8.80;99.90;;;;;;4996551;28;20522;-71
2023/11/03 00:36:49;;;;;;;6.30;1.63;;;8.80;99.90;;;;;;4989025;28;20037;-71
2023/11/03 00:39:18;;;;;;;4.00;1.60;;;8.80;99.90;;;;;;5014032;28;20034;-71
2023/11/03 00:41:47;;;;;;;5.28;2.17;;;8.90;99.90;;;;;;5013846;28;20038;-71
2023/11/03 00:44:12;;;;;;;3.65;1.65;;;8.80;99.90;;;;;;4996334;28;20065;-71
2023/11/03 00:46:38;;;;;;;3.25;1.60;;;8.80;99.90;;;;;;5013832;28;20074;-71
2023/11/03 00:49:08;;;;;;;3.05;1.52;;;8.90;99.90;;;;;;5013323;28;20455;-71
2023/11/03 00:51:34;;;;;;;3.08;2.00;;;8.90;99.90;;;;;;5012943;28;20076;-71
2023/11/03 00:54:03;;;;;;;4.32;1.80;;;8.90;99.90;;;;;;4996291;28;20054;-72
2023/11/03 00:56:28;;;;;;;4.00;1.50;;;8.90;99.90;;;;;;5013442;28;20056;-71
2023/11/03 00:58:54;;;;;;;4.13;1.88;;;8.90;99.90;;;;;;5014021;28;20129;-71
2023/11/03 01:01:20;;;;;;;5.22;1.73;;;8.90;99.90;;;;;;4995372;28;20034;-71
2023/11/03 01:03:46;;;;;;;3.88;1.60;;;8.90;99.90;;;;;;5013464;28;20076;-71
2023/11/03 01:06:14;;;;;;;3.42;1.65;;;8.90;99.90;;;;;;5013531;28;20042;-71
2023/11/03 01:08:40;;;;;;;3.15;1.50;;;8.90;99.90;;;;;;5013615;28;20045;-71
2023/11/03 01:11:09;;;;;;;2.67;1.75;;;8.90;99.90;;;;;;4991690;28;20541;-71
2023/11/03 01:13:39;;;;;;;3.63;1.67;;;9.00;99.90;;;;;;4996189;28;20061;-71
2023/11/03 01:16:09;;;;;;;3.85;1.60;;;8.90;99.90;;;;;;4979270;28;20053;-71
2023/11/03 01:18:42;;;;;;;5.20;1.75;;;9.00;99.90;;;;;;5013326;28;20566;-72
2023/11/03 01:21:12;;;;;;;3.13;1.42;;;9.00;99.90;;;;;;4988575;28;20127;-72
2023/11/03 01:23:41;;;;;;;2.63;1.75;;;9.00;99.90;;;;;;5013097;28;20042;-72
2023/11/03 01:26:08;;;;;;;3.53;1.48;;;8.90;99.90;;;;;;5012952;28;20042;-73
2023/11/03 01:28:34;;;;;;;4.25;1.50;;;9.00;99.90;;;;;;5013106;28;20042;-72
2023/11/03 01:30:59;;;;;;;3.67;1.50;;;9.00;99.90;;;;;;5013198;28;20093;-72
2023/11/03 01:33:25;;;;;;;2.53;1.30;;;9.00;99.90;;;;;;5012927;28;20064;-72
2023/11/03 01:35:50;;;;;;;4.47;1.38;;;9.00;99.90;;;;;;4992823;28;20391;-72
2023/11/03 01:38:16;;;;;;;4.07;1.40;;;9.00;99.90;;;;;;4994486;28;20050;-72
2023/11/03 01:40:42;;;;;;;4.88;1.70;;;9.00;99.90;;;;;;5009242;28;20080;-72
2023/11/03 01:43:09;;;;;;;3.13;1.40;;;9.00;99.90;;;;;;5024588;23;20105;-73
2023/11/03 01:45:36;;;;;;;4.78;1.33;;;9.00;99.90;;;;;;4998285;28;20037;-73
2023/11/03 01:48:01;;;;;;;4.63;1.60;;;9.00;99.90;;;;;;5009445;28;20060;-74
2023/11/03 01:50:28;;;;;;;3.38;1.20;;;9.00;99.90;;;;;;4994232;28;20054;-75
2023/11/03 01:52:56;;;;;;;3.58;1.30;;;9.00;99.90;;;;;;4998909;28;20053;-74
2023/11/03 01:55:22;;;;;;;3.55;1.20;;;9.00;99.90;;;;;;5001991;28;20042;-74
2023/11/03 01:57:49;;;;;;;4.45;1.25;;;9.00;99.90;;;;;;4980098;28;20595;-74
2023/11/03 02:00:16;;;;;;;3.95;1.45;;;9.00;99.90;;;;;;4975265;28;20149;-74
2023/11/03 02:02:43;;;;;;;1.83;1.10;;;9.00;99.90;;;;;;4975431;28;20046;-74
2023/11/03 02:05:09;;;;;;;3.55;1.55;;;9.00;99.90;;;;;;4975348;28;20046;-74
2023/11/03 02:07:38;;;;;;;4.72;1.38;;;9.00;99.90;;;;;;4954137;28;20529;-76
2023/11/03 02:10:07;;;;;;;3.65;1.60;;;9.00;99.90;;;;;;4998000;28;20043;-74
2023/11/03 02:12:33;;;;;;;2.45;1.17;;;9.00;99.90;;;;;;4992386;28;20049;-74
2023/11/03 02:14:59;;;;;;;5.53;1.45;;;9.10;99.90;;;;;;4980521;28;20375;-74
2023/11/03 02:17:24;;;;;;;4.38;1.40;;;9.10;99.90;;;;;;4992109;28;20108;-74
2023/11/03 02:19:50;;;;;;;2.83;1.30;;;9.10;99.90;;;;;;4975120;28;20096;-74
2023/11/03 02:22:16;;;;;;;3.30;1.10;;;9.10;99.90;;;;;;4992742;28;20046;-75
2023/11/03 02:24:43;;;;;;;4.82;1.35;;;9.10;99.90;;;;;;4975212;28;20130;-74
2023/11/03 02:27:08;;;;;;;2.80;1.30;;;9.10;99.90;;;;;;4974690;28;20046;-75
2023/11/03 02:29:34;;;;;;;2.30;1.27;;;9.10;99.90;;;;;;4974918;28;20443;-74
2023/11/03 02:32:00;;;;;;;2.60;1.30;;;9.10;99.90;;;;;;4985490;28;20046;-74
2023/11/03 02:34:25;;;;;;;3.72;1.40;;;9.10;99.90;;;;;;4986779;28;20050;-75
2023/11/03 02:36:52;;;;;;;3.17;1.23;;;9.10;99.90;;;;;;4982674;28;20516;-75
2023/11/03 02:39:18;;;;;;;3.40;1.30;;;9.10;99.90;;;;;;4987488;28;20048;-74
2023/11/03 02:41:44;;;;;;;2.40;1.20;;;9.10;99.90;;;;;;4968796;28;20042;-75
2023/11/03 02:44:09;;;;;;;2.20;1.30;;;9.10;99.90;;;;;;4974435;28;20501;-74
2023/11/03 02:46:35;;;;;;;3.72;1.50;;;9.10;99.90;;;;;;4974315;28;20074;-74
2023/11/03 02:49:01;;;;;;;2.25;1.50;;;9.10;99.90;;;;;;4975157;28;20049;-74
2023/11/03 02:51:27;;;;;;;3.05;1.35;;;9.20;99.90;;;;;;4980684;28;20053;-74
2023/11/03 02:53:52;;;;;;;4.45;1.88;;;9.20;99.90;;;;;;4977882;28;20042;-74
2023/11/03 02:56:23;;;;;;;3.88;1.27;;;9.10;99.90;;;;;;4991798;28;20042;-74
2023/11/03 02:58:48;;;;;;;6.43;1.52;;;9.20;99.90;;;;;;4974355;28;20505;-74
2023/11/03 03:01:15;;;;;;;4.90;1.60;;;9.30;99.90;;;;;;4974077;28;20169;-75
2023/11/03 03:03:41;;;;;;;2.53;1.38;;;9.30;99.90;;;;;;4981889;28;20103;-75
2023/11/03 03:06:07;;;;;;;3.08;1.30;;;9.30;99.90;;;;;;4982996;28;20384;-74
2023/11/03 03:08:33;;;;;;;3.67;1.50;;;9.30;99.90;;;;;;4996191;28;20457;-74
2023/11/03 03:11:00;;;;;;;4.57;1.42;;;9.60;99.90;;;;;;4977045;28;20038;-74
2023/11/03 03:13:29;;;;;;;5.00;1.77;;;9.30;99.90;;;;;;4974478;28;20038;-75
2023/11/03 03:15:54;;;;;;;5.90;1.60;;;9.30;99.90;;;;;;4973936;28;20050;-74
2023/11/03 03:18:20;;;;;;;2.53;1.48;;;9.30;99.90;;;;;;4974263;28;20054;-75
2023/11/03 03:20:46;;;;;;;3.13;1.30;;;9.30;99.90;;;;;;4974548;28;20046;-74
2023/11/03 03:23:12;;;;;;;2.90;1.25;;;9.30;99.90;;;;;;4974594;28;20415;-76
2023/11/03 03:25:38;;;;;;;3.88;1.50;;;9.30;99.90;;;;;;4971262;28;20472;-75
2023/11/03 03:28:04;;;;;;;4.57;1.67;;;9.30;99.90;;;;;;4983198;28;20038;-76
2023/11/03 03:30:30;;;;;;;4.07;1.40;;;9.30;99.90;;;;;;5006886;28;20048;-75
2023/11/03 03:32:55;;;;;;;4.95;1.52;;;9.30;99.90;;;;;;4982678;28;20113;-74
2023/11/03 03:35:21;;;;;;;3.17;1.50;;;10.30;99.90;;;;;;4962001;28;20046;-74
2023/11/03 03:37:46;;;;;;;2.20;1.30;;;9.30;99.90;;;;;;5004348;28;20058;-75
2023/11/03 03:40:14;;;;;;;4.05;2.00;;;9.30;99.90;;;;;;4986661;28;20030;-74
2023/11/03 03:42:41;;;;;;;4.10;1.55;;;9.30;99.90;;;;;;4982564;28;20517;-75
2023/11/03 03:45:07;;;;;;;2.47;1.48;;;9.30;99.90;;;;;;4977786;28;20039;-74
2023/11/03 03:47:33;;;;;;;5.55;1.63;;;9.30;99.90;;;;;;4995381;28;20479;-75
2023/11/03 03:49:59;;;;;;;3.70;1.50;;;9.30;99.90;;;;;;4977975;28;20100;-75
2023/11/03 03:52:24;;;;;;;4.22;1.60;;;9.30;99.90;;;;;;4995625;28;20418;-75
2023/11/03 03:54:50;;;;;;;3.78;1.48;;;9.30;99.90;;;;;;4985765;28;20483;-75
2023/11/03 03:57:15;;;;;;;4.63;1.80;;;9.30;99.90;;;;;;4985964;28;20517;-75
2023/11/03 03:59:41;;;;;;;7.72;1.70;;;9.30;99.90;;;;;;4978044;28;20049;-75
2023/11/03 04:02:07;;;;;;;3.72;1.50;;;9.40;99.90;;;;;;4977850;28;20061;-75
2023/11/03 04:04:35;;;;;;;3.83;1.52;;;9.30;99.90;;;;;;4978345;28;20117;-74
2023/11/03 04:07:01;;;;;;;3.35;1.55;;;9.40;99.90;;;;;;4961651;28;20047;-75
2023/11/03 04:09:27;;;;;;;3.90;1.55;;;9.40;99.90;;;;;;4978149;28;20402;-75
2023/11/03 04:11:52;;;;;;;2.80;1.38;;;9.40;99.90;;;;;;4977900;28;20057;-75
2023/11/03 04:14:18;;;;;;;3.47;1.60;;;9.40;99.90;;;;;;4981188;28;20403;-74
2023/11/03 04:16:44;;;;;;;4.22;1.45;;;9.40;99.90;;;;;;4978230;28;20119;-74
2023/11/03 04:19:10;;;;;;;4.13;1.40;;;9.40;99.90;;;;;;4977685;28;20119;-75
2023/11/03 04:21:35;;;;;;;4.68;1.50;;;9.40;99.90;;;;;;4995155;28;20042;-75
2023/11/03 04:24:01;;;;;;;3.15;1.60;;;9.40;99.90;;;;;;4978426;28;20101;-75
2023/11/03 04:26:26;;;;;;;3.05;1.23;;;9.40;99.90;;;;;;4990566;28;20042;-74
2023/11/03 04:28:52;;;;;;;2.90;1.45;;;9.40;99.90;;;;;;4995212;28;20121;-75
2023/11/03 04:31:17;;;;;;;5.15;1.40;;;9.40;99.90;;;;;;4996234;28;20096;-76
2023/11/03 04:33:43;;;;;;;5.45;1.67;;;9.40;99.90;;;;;;4995842;28;20034;-75
2023/11/03 04:36:10;;;;;;;4.47;1.80;;;9.40;99.90;;;;;;4977778;28;20050;-75
2023/11/03 04:38:36;;;;;;;2.58;1.58;;;9.30;99.90;;;;;;4977823;28;20522;-76
2023/11/03 04:41:01;;;;;;;2.80;1.25;;;9.30;99.90;;;;;;4994610;28;20042;-75
2023/11/03 04:43:27;;;;;;;2.22;1.30;;;9.30;99.90;;;;;;4977707;28;20372;-75
2023/11/03 04:45:52;;;;;;;4.43;1.30;;;9.30;99.90;;;;;;4977965;28;20042;-75
2023/11/03 04:48:18;;;;;;;4.85;1.65;;;9.30;99.90;;;;;;4980578;28;20141;-75
2023/11/03 04:50:43;;;;;;;2.90;1.27;;;9.30;99.90;;;;;;4983257;28;20652;-75
2023/11/03 04:53:09;;;;;;;2.45;1.42;;;9.30;99.90;;;;;;4991386;28;20049;-76
2023/11/03 04:55:35;;;;;;;3.35;1.73;;;9.30;99.90;;;;;;4986099;28;20049;-75
2023/11/03 04:58:00;;;;;;;5.90;1.70;;;9.30;99.90;;;;;;4991468;28;20046;-75
2023/11/03 05:00:26;;;;;;;4.18;1.83;;;9.40;99.90;;;;;;4977439;28;20054;-75
2023/11/03 05:02:52;;;;;;;2.28;1.30;;;9.40;99.90;;;;;;5001482;28;20038;-75
2023/11/03 05:05:17;;;;;;;3.58;1.45;;;9.30;99.90;;;;;;4995220;28;20035;-75
2023/11/03 05:07:43;;;;;;;4.93;1.52;;;9.30;99.90;;;;;;4977973;28;20109;-75
2023/11/03 05:10:09;;;;;;;3.78;1.70;;;9.30;99.90;;;;;;4977691;28;20050;-75
2023/11/03 05:12:36;;;;;;;4.57;1.60;;;9.40;99.90;;;;;;4972453;28;20038;-75
2023/11/03 05:15:03;;;;;;;2.58;1.40;;;9.30;99.90;;;;;;5004524;28;20041;-75
2023/11/03 05:17:28;;;;;;;3.28;1.40;;;9.30;99.90;;;;;;4987301;28;20043;-75
2023/11/03 05:19:54;;;;;;;4.15;1.52;;;9.30;99.90;;;;;;4980705;28;20053;-77
2023/11/03 05:22:20;;;;;;;5.38;1.50;;;9.30;99.90;;;;;;4976036;28;20043;-75
2023/11/03 05:24:45;;;;;;;2.22;1.30;;;9.30;99.90;;;;;;4976042;28;20042;-75
2023/11/03 05:27:13;;;;;;;4.32;1.40;;;9.30;99.90;;;;;;5006189;28;20486;-76
2023/11/03 05:29:39;;;;;;;2.58;1.17;;;9.30;99.90;;;;;;4977006;28;20097;-75
2023/11/03 05:32:06;;;;;;;3.45;1.63;;;9.30;99.90;;;;;;4975916;28;20173;-76
2023/11/03 05:34:35;;;;;;;2.67;1.17;;;9.30;99.90;;;;;;4976152;28;20489;-75
2023/11/03 05:37:00;;;;;;;6.18;1.50;;;9.30;99.90;;;;;;4979435;28;20072;-75
2023/11/03 05:39:26;;;;;;;4.30;1.50;;;9.30;99.90;;;;;;4986242;28;20523;-75
2023/11/03 05:41:52;;;;;;;2.97;1.20;;;9.30;99.90;;;;;;4983396;28;20160;-75
2023/11/03 05:44:17;;;;;;;4.63;1.33;;;9.30;99.90;;;;;;4975847;28;20095;-76
2023/11/03 05:46:43;;;;;;;2.65;0.95;;;9.30;99.90;;;;;;4971984;28;20050;-75
2023/11/03 05:49:09;;;;;;;4.88;1.40;;;9.30;99.90;;;;;;4998742;28;20041;-75
2023/11/03 05:51:35;;;;;;;5.65;1.30;;;9.30;99.90;;;;;;4978010;28;20037;-75
2023/11/03 05:54:01;;;;;;;5.50;1.65;;;9.30;99.90;;;;;;4978617;28;20037;-76
2023/11/03 05:56:27;;;;;;;4.15;1.80;;;9.30;99.90;;;;;;4982516;28;20054;-75
2023/11/03 05:58:53;;;;;;;6.57;1.60;;;9.30;99.90;;;;;;4992834;28;20038;-75
2023/11/03 06:01:18;;;;;;;3.03;1.50;;;9.30;99.90;;;;;;4975358;28;20154;-76
2023/11/03 06:03:44;;;;;;;5.85;1.60;;;9.40;99.90;;;;;;4979437;28;20065;-75
2023/11/03 06:06:09;;;;;;;6.78;1.73;;;9.30;99.90;;;;;;4975396;28;20125;-75
2023/11/03 06:08:35;;;;;;;2.63;1.42;;;9.30;99.90;;;;;;4973577;28;20046;-75
2023/11/03 06:11:01;;;;;;;5.53;1.70;;;9.30;99.90;;;;;;4976131;28;20514;-75
2023/11/03 06:13:26;;;;;;;6.50;2.42;;;9.30;99.90;;;;;;4974860;28;20050;-75
2023/11/03 06:15:52;;;;;;;4.10;1.63;;;9.30;99.90;;;;;;4992502;28;20042;-75
2023/11/03 06:18:18;;;;;;;6.15;1.85;;;9.30;99.90;;;;;;4977678;28;20039;-74
2023/11/03 06:20:43;;;;;;;4.78;1.70;;;9.30;99.90;;;;;;4975411;28;20036;-75
2023/11/03 06:23:10;;;;;;;5.20;1.98;;;9.30;99.90;;;;;;4974916;28;20088;-75
2023/11/03 06:25:35;;;;;;;4.72;2.15;;;9.20;99.90;;;;;;4984683;28;20088;-74
2023/11/03 06:28:01;;;;;;;6.13;2.03;;;9.20;99.90;;;;;;4984589;28;20070;-75
2023/11/03 06:30:29;;;;;;;7.40;2.30;;;9.20;99.90;;;;;;4974975;28;20054;-74
2023/11/03 06:32:55;;;;;;;8.70;2.50;;;9.10;99.90;;;;;;4975438;28;20050;-75
2023/11/03 06:35:20;;;;;;;7.97;2.00;;;9.10;99.90;;;;;;4980333;28;20061;-75
2023/11/03 06:37:48;;;;;;;4.63;1.95;;;9.10;99.90;;;;;;4974863;28;20046;-75
2023/11/03 06:40:15;;;;;;;7.00;2.00;;;9.10;99.90;;;;;;4974318;28;20045;-75
2023/11/03 06:42:41;;;;;;;5.07;2.00;;;9.10;99.90;;;;;;4974855;28;20073;-74
2023/11/03 06:45:09;;;;;;;7.15;2.25;;;9.10;99.90;;;;;;4991914;28;20066;-74
2023/11/03 06:47:36;;;;;;;6.78;2.10;;;9.10;99.90;;;;;;4974622;28;20046;-74
2023/11/03 06:50:08;;;;;;;10.75;2.55;;;9.10;99.90;;;;;;4965517;28;20045;-73
2023/11/03 06:52:34;;;;;;;5.15;2.20;;;9.10;99.90;;;;;;4966822;28;20042;-74
2023/11/03 06:55:03;;;;;;;5.55;2.30;;;9.10;99.90;;;;;;4990794;28;20056;-76
2023/11/03 06:57:29;;;;;;;6.25;2.80;;;9.10;99.90;;;;;;4998995;28;20050;-74
2023/11/03 06:59:55;;;;;;;6.55;2.70;;;9.10;99.90;;;;;;4976303;28;20042;-73
2023/11/03 07:02:20;;;;;;;6.82;2.60;;;9.10;99.90;;;;;;4985983;28;20038;-73
2023/11/03 07:04:46;;;;;;;7.40;2.60;;;9.10;99.90;;;;;;4988281;28;20495;-73
2023/11/03 07:07:11;;;;;;;7.57;3.10;;;9.00;99.90;;;;;;4994298;28;20132;-72
2023/11/03 07:09:37;;;;;;;8.95;2.92;;;9.00;99.90;;;;;;4976473;28;20101;-73
2023/11/03 07:12:05;;;;;;;8.65;2.78;;;9.00;99.90;;;;;;4996024;28;20044;-73
2023/11/03 07:14:31;;;;;;;8.18;3.13;;;9.00;99.90;;;;;;4978656;28;20854;-72
2023/11/03 07:16:57;;;;;;;6.63;2.97;;;9.00;99.90;;;;;;4970794;28;20056;-73
2023/11/03 07:19:23;;;;;;;8.40;2.70;;;9.00;99.90;;;;;;4995035;28;20080;-73
2023/11/03 07:21:53;;;;;;;9.10;3.25;;;9.00;99.90;;;;;;4979822;28;20038;-73
2023/11/03 07:24:21;;;;;;;9.45;3.22;;;9.10;99.90;;;;;;4976743;28;20054;-73
2023/11/03 07:26:50;;;;;;;9.38;3.47;;;9.10;99.90;;;;;;4996579;28;20077;-72
2023/11/03 07:29:19;;;;;;;9.65;3.35;;;9.10;99.90;;;;;;4984405;28;20053;-72
2023/11/03 07:31:46;;;;;;;8.77;2.75;;;9.10;99.90;;;;;;4999224;28;20069;-72
2023/11/03 07:34:12;;;;;;;12.75;2.83;;;9.10;99.90;;;;;;4976332;28;20035;-73
2023/11/03 07:36:37;;;;;;;9.77;3.25;;;9.10;99.90;;;;;;4973229;28;20034;-72
2023/11/03 07:39:06;;;;;;;6.68;3.38;;;9.10;99.90;;;;;;4986118;28;20447;-73
2023/11/03 07:41:35;;;;;;;8.95;2.80;;;9.10;99.90;;;;;;4971751;28;20089;-72
2023/11/03 07:44:01;;;;;;;13.80;3.13;;;9.10;99.90;;;;;;5008069;23;20043;-66
2023/11/03 07:46:30;;;;;;;9.60;3.28;;;9.10;99.90;;;;;;4973821;28;20031;-67
2023/11/03 07:48:57;;;;;;;10.13;2.50;;;9.10;99.90;;;;;;4971723;28;20154;-67
2023/11/03 07:51:26;;;;;;;7.18;2.80;;;9.10;99.90;;;;;;4952124;28;20506;-67
2023/11/03 07:53:53;;;;;;;10.63;2.67;;;9.10;99.90;;;;;;4972946;28;20186;-67
2023/11/03 07:56:18;;;;;;;13.45;2.78;;;9.10;99.90;;;;;;4973277;28;20047;-67
2023/11/03 07:58:48;;;;;;;7.90;2.60;;;9.10;99.90;;;;;;4974133;28;20053;-67
2023/11/03 08:01:14;;;;;;;8.30;2.85;;;9.20;99.90;;;;;;4972711;28;20046;-66
2023/11/03 08:03:41;;;;;;;11.15;3.25;;;9.20;99.90;;;;;;4973343;28;20073;-67
2023/11/03 08:06:07;;;;;;;9.60;2.78;;;9.20;99.90;;;;;;4972724;28;20090;-67
2023/11/03 08:08:33;;;;;;;9.07;3.33;;;9.20;99.90;;;;;;4960352;28;20070;-67
2023/11/03 08:10:59;;;;;;;10.13;3.30;;;9.30;99.90;;;;;;4961586;28;20397;-67
2023/11/03 08:13:25;;;;;;;14.10;3.22;;;9.40;99.90;;;;;;4980730;28;20113;-67
2023/11/03 08:15:51;;;;;;;7.95;2.78;;;9.30;99.90;;;;;;4973006;28;20038;-67
2023/11/03 08:18:16;;;;;;;11.45;3.50;;;9.40;99.90;;;;;;4973239;28;20513;-67
2023/11/03 08:20:42;;;;;;;12.25;3.50;;;9.40;99.90;;;;;;4975099;28;20482;-66
2023/11/03 08:23:09;;;;;;;11.52;3.20;;;9.50;99.90;;;;;;4975956;28;20046;-67
2023/11/03 08:25:35;;;;;;;9.25;3.22;;;9.50;99.90;;;;;;4975996;28;20046;-66
2023/11/03 08:28:01;;;;;;;12.32;3.40;;;9.50;99.90;;;;;;4974944;28;20046;-67
2023/11/03 08:30:27;;;;;;;11.55;3.42;;;9.60;99.90;;;;;;4974659;28;20039;-67
2023/11/03 08:32:54;;;;;;;10.45;3.38;;;9.60;99.90;;;;;;4975369;28;20863;-66
2023/11/03 08:35:20;;;;;;;7.95;3.10;;;9.70;99.90;;;;;;4973822;28;20501;-67
2023/11/03 08:37:54;;;;;;;12.85;3.50;;;9.70;99.90;;;;;;4974708;28;20039;-67
2023/11/03 08:40:21;;;;;;;8.73;3.40;;;9.70;99.90;;;;;;4974669;28;20038;-66
2023/11/03 08:42:47;;;;;;;11.73;3.35;;;9.70;99.90;;;;;;4957084;28;20042;-66
2023/11/03 08:45:14;;;;;;;12.05;4.05;;;9.70;99.90;;;;;;4973771;28;20035;-66
2023/11/03 08:47:43;;;;;;;10.02;3.53;;;9.70;99.90;;;;;;4974205;28;20507;-67
2023/11/03 08:50:09;;;;;;;13.25;3.75;;;9.70;99.90;;;;;;4957283;28;20050;-67
2023/11/03 08:52:35;;;;;;;12.73;4.63;;;9.70;99.90;;;;;;4973314;28;20044;-66
2023/11/03 08:55:06;;;;;;;11.75;3.63;;;9.70;99.90;;;;;;4974221;28;20117;-66
2023/11/03 08:57:35;;;;;;;10.60;3.60;;;9.70;99.90;;;;;;4972616;28;20038;-66
2023/11/03 09:00:08;;;;;;;10.48;4.00;;;9.80;99.90;;;;;;4958031;28;20043;-66
2023/11/03 09:02:41;;;;;;;13.70;3.92;;;9.80;99.90;;;;;;4976953;28;20047;-66
2023/11/03 09:05:09;;;;;;;10.07;3.53;;;9.90;99.90;;;;;;4953717;28;20041;-66
2023/11/03 09:07:36;;;;;;;16.42;4.10;;;9.90;99.90;;;;;;4972549;28;20035;-65
2023/11/03 09:10:12;;;;;;;11.35;3.78;;;10.00;99.90;;;;;;4973952;28;20490;-65
2023/11/03 09:12:40;;;;;;;16.00;4.00;;;10.00;99.90;;;;;;4955740;28;20043;-65
2023/11/03 09:15:09;;;;;;;12.40;4.03;;;10.10;99.90;;;;;;4955338;28;20039;-66
2023/11/03 09:17:36;;;;;;;14.30;4.28;;;10.20;99.90;;;;;;4974725;28;20039;-66
2023/11/03 09:20:04;;;;;;;13.80;4.22;;;10.30;99.90;;;;;;4975191;28;20117;-66
2023/11/03 09:22:30;;;;;;;14.23;3.58;;;10.30;99.90;;;;;;4973203;28;20532;-66
2023/11/03 09:24:57;;;;;;;14.25;3.50;;;10.40;99.90;;;;;;4975573;28;20043;-66
2023/11/03 09:27:26;;;;;;;12.02;3.40;;;10.50;99.90;;;;;;4946676;28;20057;-65
2023/11/03 09:29:52;;;;;;;12.48;3.30;;;10.60;99.90;;;;;;4970030;28;20046;-66
2023/11/03 09:32:18;;;;;;;11.57;2.92;;;10.60;99.90;;;;;;4958066;28;20050;-66
2023/11/03 09:34:47;;;;;;;10.77;2.58;;;10.70;99.90;;;;;;4976059;28;20041;-66
2023/11/03 09:37:14;;;;;;;14.80;4.20;;;10.80;99.90;;;;;;4975278;28;20106;-66
2023/11/03 09:39:39;;;;;;;12.20;3.13;;;10.80;99.90;;;;;;4970395;28;20039;-65
2023/11/03 09:42:06;;;;;;;11.43;2.67;;;10.80;99.90;;;;;;4928036;28;20043;-67
2023/11/03 09:44:32;;;;;;;11.07;3.20;;;10.80;99.90;;;;;;4953198;28;20035;-65
2023/11/03 09:47:03;;;;;;;12.77;3.10;;;10.80;99.90;;;;;;4951258;28;20049;-65
2023/11/03 09:49:30;;;;;;;12.57;3.13;;;10.80;99.90;;;;;;4971842;28;20043;-66
2023/11/03 09:52:02;;;;;;;13.00;3.53;;;10.80;99.90;;;;;;4953301;28;20051;-65
2023/11/03 09:54:34;;;;;;;11.75;3.65;;;10.70;99.90;;;;;;4967117;28;20050;-66
2023/11/03 09:57:02;;;;;;;11.88;3.00;;;10.70;99.90;;;;;;4972514;28;20039;-65
2023/11/03 09:59:35;;;;;;;13.80;3.10;;;10.70;99.90;;;;;;4972188;28;20077;-65
2023/11/03 10:02:15;;;;;;;9.63;3.03;;;10.60;99.90;;;;;;4969249;28;20097;-65
2023/11/03 10:04:41;;;;;;;14.18;3.38;;;10.60;99.90;;;;;;4972511;28;20046;-66
2023/11/03 10:07:11;;;;;;;10.48;2.95;;;10.60;99.90;;;;;;4954709;28;20035;-65
2023/11/03 10:09:38;;;;;;;15.68;3.28;;;10.60;99.90;;;;;;4955059;28;20117;-65
2023/11/03 10:12:09;;;;;;;11.82;3.15;;;10.60;99.90;;;;;;4972009;28;20027;-66
2023/11/03 10:14:35;;;;;;;15.13;3.50;;;10.70;99.90;;;;;;4972008;28;20042;-65
2023/11/03 10:17:00;;;;;;;15.52;3.10;;;10.60;99.90;;;;;;4971249;28;20033;-65
2023/11/03 10:19:27;;;;;;;9.45;2.63;;;10.60;99.90;;;;;;4971978;28;20596;-65
2023/11/03 10:21:54;;;;;;;11.05;3.05;;;10.60;99.90;;;;;;4954596;28;20225;-66
2023/11/03 10:24:22;;;;;;;10.82;2.90;;;10.60;99.90;;;;;;4949284;28;20517;-65
2023/11/03 10:26:50;;;;;;;13.30;3.33;;;10.70;99.90;;;;;;4970782;28;20038;-64
2023/11/03 10:29:16;;;;;;;12.23;3.00;;;10.60;99.90;;;;;;4971145;28;20165;-65
2023/11/03 10:31:47;;;;;;;15.63;3.47;;;10.60;99.90;;;;;;4971783;28;20133;-64
2023/11/03 10:34:14;;;;;;;12.13;2.95;;;10.60;99.90;;;;;;4953473;28;20049;-65
2023/11/03 10:36:41;;;;;;;15.35;3.22;;;10.60;99.90;;;;;;4971617;28;20529;-64
2023/11/03 10:39:07;;;;;;;13.35;3.33;;;10.60;99.90;;;;;;4971854;28;20042;-64
2023/11/03 10:41:33;;;;;;;14.32;3.03;;;10.60;99.90;;;;;;4971417;28;20118;-64
2023/11/03 10:44:01;;;;;;;16.25;3.10;;;10.60;99.90;;;;;;4954031;28;20498;-64
2023/11/03 10:46:37;;;;;;;11.25;2.70;;;10.70;99.90;;;;;;4954190;28;20082;-64
2023/11/03 10:49:31;;;;;;;13.20;3.00;;;10.70;99.90;;;;;;4954011;28;20047;-65
2023/11/03 10:52:03;;;;;;;10.15;2.58;;;10.70;99.90;;;;;;4960774;28;20058;-64
2023/11/03 10:54:43;;;;;;;11.07;2.83;;;10.80;99.90;;;;;;4949006;28;20043;-65
2023/11/03 10:57:13;;;;;;;12.75;2.45;;;10.80;99.90;;;;;;4954448;28;20051;-64
2023/11/03 10:59:40;;;;;;;17.50;3.35;;;10.90;99.90;;;;;;4970501;28;20038;-64
2023/11/03 11:02:43;;;;;;;14.18;3.17;;;11.00;99.90;;;;;;4971630;28;20482;-64
2023/11/03 11:05:17;;;;;;;11.15;2.50;;;11.10;99.90;;;;;;4965046;28;20067;-65
2023/11/03 11:07:52;;;;;;;13.02;2.75;;;11.20;99.90;;;;;;4954346;28;20061;-64
2023/11/03 11:10:32;;;;;;;13.73;3.00;;;11.30;99.90;;;;;;4971186;28;20069;-65
2023/11/03 11:12:58;;;;;;;11.32;2.20;;;11.40;99.90;;;;;;4971161;28;20054;-64
2023/11/03 11:15:24;;;;;;;16.33;2.53;;;11.40;99.90;;;;;;4969844;28;20042;-65
2023/11/03 11:17:51;;;;;;;16.63;3.10;;;11.50;99.90;;;;;;4971663;28;20051;-65
2023/11/03 11:20:19;;;;;;;15.70;3.03;;;11.60;99.90;;;;;;4965082;28;20039;-64
2023/11/03 11:22:50;;;;;;;8.02;2.55;;;11.60;99.90;;;;;;4971641;28;20043;-64
2023/11/03 11:25:16;;;;;;;14.00;2.88;;;11.60;99.90;;;;;;4971139;28;20106;-65
2023/11/03 11:27:49;;;;;;;13.15;2.83;;;11.50;99.90;;;;;;4971142;28;20047;-64
2023/11/03 11:30:17;;;;;;;11.48;2.65;;;11.50;99.90;;;;;;4970987;28;20045;-65
2023/11/03 11:32:53;;;;;;;16.33;3.33;;;11.60;99.90;;;;;;4953993;28;20106;-64
2023/11/03 11:35:20;;;;;;;10.20;2.55;;;11.70;99.90;;;;;;4953840;28;20405;-65
2023/11/03 11:37:46;;;;;;;11.50;2.95;;;11.80;99.90;;;;;;4971338;28;20055;-65
2023/11/03 11:40:13;;;;;;;14.02;3.35;;;11.80;99.90;;;;;;4968045;28;20035;-64
2023/11/03 11:42:43;;;;;;;10.32;2.75;;;11.70;99.90;;;;;;4970373;28;20070;-65
2023/11/03 11:45:11;;;;;;;10.90;2.88;;;11.70;99.90;;;;;;4955905;28;20387;-66
2023/11/03 11:47:44;;;;;;;16.88;2.90;;;11.70;99.90;;;;;;4957910;28;20046;-64
2023/11/03 11:50:11;;;;;;;12.00;3.08;;;11.60;99.90;;;;;;4969559;28;20035;-65
2023/11/03 11:52:39;;;;;;;17.48;3.00;;;11.60;99.90;;;;;;4975511;28;20073;-65
2023/11/03 11:55:07;;;;;;;14.75;3.10;;;11.60;99.90;;;;;;4975414;28;20039;-64
2023/11/03 11:57:40;;;;;;;12.40;3.00;;;11.70;99.90;;;;;;4950900;28;20047;-64
2023/11/03 12:00:10;;;;;;;12.00;2.88;;;11.70;99.90;;;;;;4957966;28;20378;-65
2023/11/03 12:02:36;;;;;;;13.85;2.58;;;11.70;99.90;;;;;;4957373;28;20047;-64
2023/11/03 12:05:03;;;;;;;13.43;2.63;;;11.80;99.90;;;;;;4974405;28;20061;-65
2023/11/03 12:07:30;;;;;;;11.27;2.92;;;11.70;99.90;;;;;;4957631;28;20101;-64
2023/11/03 12:09:56;;;;;;;10.40;2.40;;;11.70;99.90;;;;;;4956584;28;20045;-65
2023/11/03 12:12:23;;;;;;;13.73;3.13;;;11.70;99.90;;;;;;4974925;28;20035;-64
2023/11/03 12:14:48;;;;;;;7.85;1.92;;;11.70;99.90;;;;;;4967465;28;20061;-66
2023/11/03 12:17:15;;;;;;;11.60;2.40;;;11.70;99.90;;;;;;4970330;28;20498;-65
2023/11/03 12:19:46;;;;;;;12.93;2.65;;;11.70;99.90;;;;;;4959275;28;20035;-64
2023/11/03 12:22:26;;;;;;;12.88;2.83;;;11.70;99.90;;;;;;4967528;28;20039;-65
2023/11/03 12:24:55;;;;;;;10.20;2.20;;;11.70;99.90;;;;;;4967810;28;20121;-65
2023/11/03 12:27:22;;;;;;;9.85;2.40;;;11.60;99.90;;;;;;4958990;28;20034;-66
2023/11/03 12:29:48;;;;;;;13.57;2.85;;;11.60;99.90;;;;;;4950478;28;20410;-65
2023/11/03 12:32:15;;;;;;;13.20;2.53;;;11.60;99.90;;;;;;4963864;28;20039;-65
2023/11/03 12:34:41;;;;;;;12.70;2.83;;;11.60;99.90;;;;;;4948636;28;20042;-65
2023/11/03 12:37:09;;;;;;;9.30;2.40;;;11.60;99.90;;;;;;4941415;28;20035;-66
2023/11/03 12:39:48;;;;;;;14.07;2.20;;;11.60;99.90;;;;;;4951936;28;20568;-65
2023/11/03 12:42:13;;;;;;;11.57;2.92;;;11.60;99.90;;;;;;4952988;28;20074;-66
2023/11/03 12:45:00;;;;;;;16.90;3.08;;;11.50;99.90;;;;;;4966553;28;20118;-66
2023/11/03 12:47:55;;;;;;;10.82;2.97;;;11.50;99.90;;;;;;4964912;28;20042;-66
2023/11/03 12:50:20;;;;;;;12.32;3.35;;;11.50;99.90;;;;;;4957037;28;20177;-65